Time;durP1;ratioP1;P1;durP2;ratioP2;P2;SDS_P1;SDS_P2;PMS_P1;PMS_P2;Temp;Humidity;BMP_temperature;BMP_pressure;BME280_temperature;BME280_humidity;BME280_pressure;Samples;Min_cycle;Max_cycle;Signal;HPM_P1;HPM_P2
2022/01/15 00:00:28;;;;;;;7.97;4.20;;;;;;;-145.82;100.00;61645.16;4964930;28;20043;-70
2022/01/15 00:02:55;;;;;;;9.90;4.40;;;;;;;-145.82;100.00;61645.16;4964156;28;20073;-69
2022/01/15 00:05:21;;;;;;;8.23;3.95;;;;;;;-145.82;100.00;61645.16;4965224;28;20043;-69
2022/01/15 00:07:48;;;;;;;12.02;5.82;;;;;;;-145.82;100.00;61645.16;4964465;28;20561;-70
2022/01/15 00:10:20;;;;;;;17.02;5.07;;;;;;;-145.82;100.00;61645.16;4966317;28;20050;-69
2022/01/15 00:12:47;;;;;;;12.50;4.95;;;;;;;-145.82;100.00;61645.16;4964248;28;20418;-69
2022/01/15 00:15:24;;;;;;;10.25;5.18;;;;;;;-145.82;100.00;61645.16;4965618;28;20038;-70
2022/01/15 00:17:59;;;;;;;8.63;4.38;;;;;;;-145.82;100.00;61645.16;4964764;28;20049;-70
2022/01/15 00:20:25;;;;;;;10.75;5.47;;;;;;;-145.82;100.00;61645.16;4964561;28;20037;-69
2022/01/15 00:22:53;;;;;;;19.77;6.35;;;;;;;-145.82;100.00;61645.16;4963304;28;20043;-69
2022/01/15 00:25:21;;;;;;;14.20;6.43;;;;;;;-145.82;100.00;61645.16;4962776;28;20069;-70
2022/01/15 00:27:47;;;;;;;9.88;5.20;;;;;;;-145.82;100.00;61645.16;4963544;28;20468;-70
2022/01/15 00:30:13;;;;;;;12.32;4.80;;;;;;;-145.82;100.00;61645.16;4963901;28;20055;-69
2022/01/15 00:32:39;;;;;;;11.20;5.70;;;;;;;-145.82;100.00;61645.16;4965604;28;20035;-69
2022/01/15 00:35:07;;;;;;;17.00;7.45;;;;;;;-145.82;100.00;61645.16;4965885;28;20039;-70
2022/01/15 00:37:33;;;;;;;18.27;7.07;;;;;;;-145.82;100.00;61645.16;4964719;28;20151;-69
2022/01/15 00:39:59;;;;;;;9.05;3.05;;;;;;;-145.82;100.00;61645.16;4966627;28;20473;-70
2022/01/15 00:42:26;;;;;;;11.55;5.43;;;;;;;-145.82;100.00;61645.16;4965529;28;20038;-69
2022/01/15 00:44:52;;;;;;;9.60;4.40;;;;;;;-145.82;100.00;61645.16;4964359;28;20038;-69
2022/01/15 00:47:18;;;;;;;11.77;5.30;;;;;;;-145.82;100.00;61645.16;4963950;28;20089;-69
2022/01/15 00:49:43;;;;;;;36.25;6.45;;;;;;;-145.82;100.00;61645.16;4968106;28;20121;-69
2022/01/15 00:52:09;;;;;;;14.10;4.65;;;;;;;-145.82;100.00;61645.16;4965665;28;20074;-71
2022/01/15 00:54:34;;;;;;;17.75;4.50;;;;;;;-145.82;100.00;61645.16;4964206;28;20402;-69
2022/01/15 00:57:00;;;;;;;12.38;5.43;;;;;;;-145.82;100.00;61645.16;4979143;28;20147;-69
2022/01/15 00:59:25;;;;;;;13.57;5.35;;;;;;;-145.82;100.00;61645.16;4965325;28;20351;-69
2022/01/15 01:01:50;;;;;;;14.43;5.35;;;;;;;-145.82;100.00;61645.16;4965075;28;20355;-69
2022/01/15 01:04:16;;;;;;;15.82;6.50;;;;;;;-145.82;100.00;61645.16;4964149;28;20130;-69
2022/01/15 01:06:41;;;;;;;10.85;5.15;;;;;;;-145.82;100.00;61645.16;4964681;28;20031;-70
2022/01/15 01:09:07;;;;;;;12.07;4.72;;;;;;;-145.82;100.00;61645.16;4964239;28;20569;-71
2022/01/15 01:11:46;;;;;;;13.18;4.38;;;;;;;-145.82;100.00;61645.16;4964240;28;20322;-69
2022/01/15 01:24:49;;;;;;;38.67;5.82;;;;;;;-145.82;100.00;61645.16;4964666;28;20373;-69
2022/01/15 01:27:43;;;;;;;9.15;4.65;;;;;;;-145.82;100.00;61645.16;4962475;28;20102;-68
2022/01/15 01:30:12;;;;;;;7.55;3.38;;;;;;;-145.82;100.00;61645.16;4964219;28;20371;-70
2022/01/15 01:35:10;;;;;;;92.47;7.60;;;;;;;-145.82;100.00;61645.16;4963459;28;20062;-69
2022/01/15 01:37:40;;;;;;;11.38;4.57;;;;;;;-145.82;100.00;61645.16;4963744;28;20519;-69
2022/01/15 01:40:21;;;;;;;30.70;5.03;;;;;;;-145.82;100.00;61645.16;4963195;28;20050;-71
2022/01/15 01:43:07;;;;;;;14.02;4.95;;;;;;;-145.82;100.00;61645.16;4964803;28;20043;-70
2022/01/15 01:45:32;;;;;;;19.85;3.92;;;;;;;-145.82;100.00;61645.16;4965105;28;20474;-69
2022/01/15 01:47:58;;;;;;;13.00;5.18;;;;;;;-145.82;100.00;61645.16;4964508;28;20070;-69
2022/01/15 01:50:26;;;;;;;10.70;4.80;;;;;;;-145.82;100.00;61645.16;4966840;28;20035;-71
2022/01/15 01:52:53;;;;;;;6.30;3.65;;;;;;;-145.82;100.00;61645.16;4965222;28;20033;-70
2022/01/15 01:55:22;;;;;;;6.30;3.42;;;;;;;-145.82;100.00;61645.16;4963603;28;20034;-71
2022/01/15 01:57:50;;;;;;;13.35;3.75;;;;;;;-145.82;100.00;61645.16;4964230;28;20092;-69
2022/01/15 02:00:19;;;;;;;13.93;4.38;;;;;;;-145.82;100.00;61645.16;4964464;28;20624;-69
2022/01/15 02:02:49;;;;;;;6.60;3.17;;;;;;;-145.82;100.00;61645.16;4964041;28;20153;-68
2022/01/15 02:05:16;;;;;;;13.15;5.38;;;;;;;-145.82;100.00;61645.16;4964449;28;20093;-71
2022/01/15 02:07:43;;;;;;;11.90;4.68;;;;;;;-145.82;100.00;61645.16;4961795;28;20121;-69
2022/01/15 02:10:12;;;;;;;12.90;5.25;;;;;;;-145.82;100.00;61645.16;4963107;28;20502;-70
2022/01/15 02:12:38;;;;;;;30.65;5.95;;;;;;;-145.82;100.00;61645.16;4963929;28;20049;-69
2022/01/15 02:15:15;;;;;;;15.80;6.30;;;;;;;-145.82;100.00;61645.16;4964497;28;20027;-69
2022/01/15 02:17:42;;;;;;;15.68;6.03;;;;;;;-145.82;100.00;61645.16;4964223;28;20043;-69
2022/01/15 02:20:36;;;;;;;12.40;4.85;;;;;;;-145.82;100.00;61645.16;4962053;28;20370;-71
2022/01/15 02:25:57;;;;;;;13.00;4.63;;;;;;;-145.82;100.00;61645.16;4965855;28;20409;-68
2022/01/15 02:28:26;;;;;;;11.02;4.93;;;;;;;-145.82;100.00;61645.16;4963327;28;20098;-71
2022/01/15 02:30:56;;;;;;;7.88;4.32;;;;;;;-145.82;100.00;61645.16;4963318;28;20389;-70
2022/01/15 02:33:22;;;;;;;16.25;4.28;;;;;;;-145.82;100.00;61645.16;4963511;28;20501;-69
2022/01/15 02:35:48;;;;;;;7.32;3.38;;;;;;;-145.82;100.00;61645.16;4965037;28;20039;-69
2022/01/15 02:38:14;;;;;;;10.25;4.47;;;;;;;-145.82;100.00;61645.16;4963357;28;20331;-71
2022/01/15 02:40:39;;;;;;;9.98;3.75;;;;;;;-145.82;100.00;61645.16;4967029;28;20431;-69
2022/01/15 02:43:07;;;;;;;4.97;2.50;;;;;;;-145.82;100.00;61645.16;4965785;28;20165;-69
2022/01/15 02:45:35;;;;;;;7.72;2.92;;;;;;;-145.82;100.00;61645.16;4968246;28;20037;-69
2022/01/15 02:48:02;;;;;;;10.07;3.38;;;;;;;-145.82;100.00;61645.16;4966326;28;20514;-68
2022/01/15 02:50:29;;;;;;;20.23;4.20;;;;;;;-145.82;100.00;61645.16;4966686;28;20154;-69
2022/01/15 02:52:54;;;;;;;3.67;2.03;;;;;;;-145.82;100.00;61645.16;4967628;28;20035;-70
2022/01/15 02:55:20;;;;;;;7.93;3.08;;;;;;;-145.82;100.00;61645.16;4968066;28;20093;-69
2022/01/15 02:57:45;;;;;;;16.35;3.95;;;;;;;-145.82;100.00;61645.16;4965092;28;20105;-68
2022/01/15 03:00:11;;;;;;;9.85;2.95;;;;;;;-145.82;100.00;61645.16;4966418;28;20096;-68
2022/01/15 03:02:37;;;;;;;10.35;4.00;;;;;;;-145.82;100.00;61645.16;4966220;28;20049;-69
2022/01/15 03:05:03;;;;;;;10.93;4.00;;;;;;;-145.82;100.00;61645.16;4968216;28;20039;-69
2022/01/15 03:07:29;;;;;;;25.58;4.10;;;;;;;-145.82;100.00;61645.16;4965600;28;20137;-69
2022/01/15 03:09:54;;;;;;;19.42;4.97;;;;;;;-145.82;100.00;61645.16;4970175;28;20046;-68
2022/01/15 03:12:20;;;;;;;12.68;4.78;;;;;;;-145.82;100.00;61645.16;4966840;28;20039;-69
2022/01/15 03:14:48;;;;;;;15.85;2.47;;;;;;;-145.82;100.00;61645.16;4966869;28;20054;-68
2022/01/15 03:17:13;;;;;;;17.65;4.10;;;;;;;-145.82;100.00;61645.16;4966455;28;20042;-71
2022/01/15 03:19:39;;;;;;;13.32;2.63;;;;;;;-145.82;100.00;61645.16;4967285;28;20422;-68
2022/01/15 03:22:04;;;;;;;13.43;4.18;;;;;;;-145.82;100.00;61645.16;4966463;28;20035;-69
2022/01/15 03:24:30;;;;;;;14.00;3.20;;;;;;;-145.82;100.00;61645.16;4965911;28;20985;-69
2022/01/15 03:26:56;;;;;;;11.63;4.43;;;;;;;-145.82;100.00;61645.16;4966188;28;20260;-69
2022/01/15 03:29:21;;;;;;;29.40;4.35;;;;;;;-145.82;100.00;61645.16;4965712;28;20445;-69
2022/01/15 03:31:47;;;;;;;17.33;4.00;;;;;;;-145.82;100.00;61645.16;4965653;28;20161;-69
2022/01/15 03:34:12;;;;;;;22.38;4.13;;;;;;;-145.82;100.00;61645.16;4967157;28;20409;-69
2022/01/15 03:36:38;;;;;;;17.90;2.65;;;;;;;-145.82;100.00;61645.16;4964916;28;20501;-70
2022/01/15 03:39:03;;;;;;;9.88;3.38;;;;;;;-145.82;100.00;61645.16;4967257;28;20042;-69
2022/01/15 03:41:29;;;;;;;17.00;3.60;;;;;;;-145.82;100.00;61645.16;4966527;28;20475;-69
2022/01/15 03:43:54;;;;;;;12.70;3.20;;;;;;;-145.82;100.00;61645.16;4967775;28;20122;-69
2022/01/15 03:46:21;;;;;;;12.43;3.83;;;;;;;-145.82;100.00;61645.16;4966184;28;20043;-70
2022/01/15 03:48:47;;;;;;;22.58;3.97;;;;;;;-145.82;100.00;61645.16;4965342;28;20031;-69
2022/01/15 03:51:14;;;;;;;12.02;3.50;;;;;;;-145.82;100.00;61645.16;4964789;28;20054;-68
2022/01/15 03:53:39;;;;;;;24.40;3.67;;;;;;;-145.82;100.00;61645.16;4966399;28;20066;-68
2022/01/15 03:56:05;;;;;;;17.85;3.33;;;;;;;-145.82;100.00;61645.16;4965628;28;20046;-68
2022/01/15 03:58:31;;;;;;;7.65;2.60;;;;;;;-145.82;100.00;61645.16;4965297;28;20046;-71
2022/01/15 04:00:57;;;;;;;21.00;2.95;;;;;;;-145.82;100.00;61645.16;4964977;28;20043;-71
2022/01/15 04:03:22;;;;;;;41.33;3.50;;;;;;;-145.82;100.00;61645.16;4964889;28;20034;-68
2022/01/15 04:05:50;;;;;;;12.60;2.13;;;;;;;-145.82;100.00;61645.16;4965272;28;20133;-68
2022/01/15 04:08:15;;;;;;;16.52;3.03;;;;;;;-145.82;100.00;61645.16;4963288;28;20110;-69
2022/01/15 04:10:42;;;;;;;11.07;2.72;;;;;;;-145.82;100.00;61645.16;4965700;28;20034;-71
2022/01/15 04:13:08;;;;;;;14.75;3.20;;;;;;;-145.82;100.00;61645.16;4963491;28;20322;-69
2022/01/15 04:15:35;;;;;;;9.88;2.28;;;;;;;-145.82;100.00;61645.16;4964879;28;20350;-69
2022/01/15 04:18:00;;;;;;;10.05;2.58;;;;;;;-145.82;100.00;61645.16;4963363;28;20081;-68
2022/01/15 04:20:26;;;;;;;14.05;2.70;;;;;;;-145.82;100.00;61645.16;4966865;28;20481;-69
2022/01/15 04:22:53;;;;;;;49.13;3.13;;;;;;;-145.82;100.00;61645.16;4965511;28;20045;-69
2022/01/15 04:25:20;;;;;;;7.10;2.75;;;;;;;-145.82;100.00;61645.16;4966589;28;20236;-69
2022/01/15 04:27:46;;;;;;;18.00;1.95;;;;;;;-145.82;100.00;61645.16;4963455;28;20092;-68
2022/01/15 04:30:13;;;;;;;9.48;2.83;;;;;;;-145.82;100.00;61645.16;4963913;28;20612;-71
2022/01/15 04:32:40;;;;;;;6.97;2.00;;;;;;;-145.82;100.00;61645.16;4980101;28;20078;-68
2022/01/15 04:35:06;;;;;;;12.77;2.25;;;;;;;-145.82;100.00;61645.16;4964928;28;20035;-68
2022/01/15 04:37:42;;;;;;;15.68;2.22;;;;;;;-145.82;100.00;61645.16;4965428;28;20830;-68
2022/01/15 04:40:09;;;;;;;6.60;2.10;;;;;;;-145.82;100.00;61645.16;4964428;28;20050;-70
2022/01/15 04:42:34;;;;;;;7.55;2.17;;;;;;;-145.82;100.00;61645.16;4967592;28;20038;-69
2022/01/15 04:45:03;;;;;;;10.00;1.48;;;;;;;-145.82;100.00;61645.16;4966385;28;20031;-69
2022/01/15 04:47:29;;;;;;;17.08;1.98;;;;;;;-145.82;100.00;61645.16;4966205;28;20070;-69
2022/01/15 04:49:55;;;;;;;12.45;1.88;;;;;;;-145.82;100.00;61645.16;4964400;28;20073;-68
2022/01/15 04:52:22;;;;;;;29.88;2.47;;;;;;;-145.82;100.00;61645.16;4965708;28;20117;-69
2022/01/15 04:54:48;;;;;;;10.10;1.92;;;;;;;-145.82;100.00;61645.16;4964010;28;20042;-69
2022/01/15 04:57:13;;;;;;;2.53;1.35;;;;;;;-145.82;100.00;61645.16;4964936;28;20046;-70
2022/01/15 04:59:39;;;;;;;14.55;2.05;;;;;;;-145.82;100.00;61645.16;4964722;28;20039;-71
2022/01/15 05:02:04;;;;;;;10.07;2.17;;;;;;;-145.82;100.00;61645.16;4964318;28;20035;-69
2022/01/15 05:04:30;;;;;;;3.83;1.38;;;;;;;-145.82;100.00;61645.16;4964146;28;20034;-70
2022/01/15 05:06:55;;;;;;;16.92;2.40;;;;;;;-145.82;100.00;61645.16;4963268;28;20050;-69
2022/01/15 05:09:21;;;;;;;30.40;3.35;;;;;;;-145.82;100.00;61645.16;4965600;28;20517;-69
2022/01/15 05:11:49;;;;;;;3.08;1.20;;;;;;;-145.82;100.00;61645.16;4965800;28;20045;-69
2022/01/15 05:14:17;;;;;;;25.40;2.42;;;;;;;-145.82;100.00;61645.16;4963439;28;20044;-71
2022/01/15 05:16:43;;;;;;;14.73;2.10;;;;;;;-145.82;100.00;61645.16;4964112;28;20105;-71
2022/01/15 05:19:09;;;;;;;9.65;1.77;;;;;;;-145.82;100.00;61645.16;4964231;28;20047;-69
2022/01/15 05:21:34;;;;;;;10.07;1.83;;;;;;;-145.82;100.00;61645.16;4965003;28;20374;-71
2022/01/15 05:24:00;;;;;;;42.97;2.85;;;;;;;-145.82;100.00;61645.16;4960889;28;20138;-69
2022/01/15 05:26:25;;;;;;;63.58;2.83;;;;;;;-145.82;100.00;61645.16;4963664;28;20058;-69
2022/01/15 05:28:51;;;;;;;16.00;2.03;;;;;;;-145.82;100.00;61645.16;4963573;28;20446;-70
2022/01/15 05:31:16;;;;;;;55.95;3.40;;;;;;;-145.82;100.00;61645.16;4961472;28;20541;-69
2022/01/15 05:33:42;;;;;;;24.80;2.35;;;;;;;-145.82;100.00;61645.16;4962515;28;20430;-69
2022/01/15 05:36:09;;;;;;;25.92;2.15;;;;;;;-145.82;100.00;61645.16;4962683;28;20525;-71
2022/01/15 05:38:35;;;;;;;61.53;2.92;;;;;;;-145.82;100.00;61645.16;4963748;28;20037;-69
2022/01/15 05:41:00;;;;;;;48.63;2.03;;;;;;;-145.82;100.00;61645.16;4963730;28;20031;-71
2022/01/15 05:43:26;;;;;;;32.75;3.10;;;;;;;-145.82;100.00;61645.16;4962731;28;20062;-70
2022/01/15 05:45:51;;;;;;;13.68;1.33;;;;;;;-145.82;100.00;61645.16;4964094;28;20034;-69
2022/01/15 05:48:17;;;;;;;15.38;1.58;;;;;;;-145.82;100.00;61645.16;4963910;28;20113;-68
2022/01/15 05:50:43;;;;;;;64.82;2.80;;;;;;;-145.82;100.00;61645.16;4964940;28;20355;-69
2022/01/15 05:53:08;;;;;;;69.63;3.45;;;;;;;-145.82;100.00;61645.16;4964161;28;20046;-69
2022/01/15 05:55:34;;;;;;;46.72;2.90;;;;;;;-145.82;100.00;61645.16;4963918;28;20034;-71
2022/01/15 05:57:59;;;;;;;66.93;2.65;;;;;;;-145.82;100.00;61645.16;4976862;28;20089;-68
2022/01/15 06:00:25;;;;;;;93.82;3.22;;;;;;;-145.82;100.00;61645.16;4962902;28;20035;-70
2022/01/15 06:02:50;;;;;;;108.60;3.70;;;;;;;-145.82;100.00;61645.16;4962617;28;20061;-69
2022/01/15 06:05:16;;;;;;;29.63;1.73;;;;;;;-145.82;100.00;61645.16;4958985;28;20027;-69
2022/01/15 06:07:42;;;;;;;23.77;2.08;;;;;;;-145.82;100.00;61645.16;4962058;28;20042;-69
2022/01/15 06:10:08;;;;;;;32.22;1.52;;;;;;;-145.82;100.00;61645.16;4963756;28;20057;-70
2022/01/15 06:12:41;;;;;;;47.42;2.20;;;;;;;-145.82;100.00;61645.16;4963871;28;20039;-70
2022/01/15 06:15:08;;;;;;;66.63;4.65;;;;;;;-145.82;100.00;61645.16;4965968;28;20229;-70
2022/01/15 06:17:33;;;;;;;106.50;4.82;;;;;;;-145.82;100.00;61645.16;4968675;28;20031;-69
2022/01/15 06:19:58;;;;;;;133.07;5.20;;;;;;;-145.82;100.00;61645.16;4967006;28;20033;-69
2022/01/15 06:22:24;;;;;;;132.68;4.78;;;;;;;-145.82;100.00;61645.16;4965857;28;20038;-71
2022/01/15 06:24:49;;;;;;;72.00;3.17;;;;;;;-145.82;100.00;61645.16;4965907;28;20062;-71
2022/01/15 06:27:18;;;;;;;123.13;5.25;;;;;;;-145.82;100.00;61645.16;4967165;28;20038;-69
2022/01/15 06:29:46;;;;;;;79.68;2.72;;;;;;;-145.82;100.00;61645.16;4966244;28;20066;-70
2022/01/15 06:32:12;;;;;;;145.10;5.28;;;;;;;-145.82;100.00;61645.16;4965114;28;20145;-70
2022/01/15 06:34:38;;;;;;;118.00;4.93;;;;;;;-145.82;100.00;61645.16;4967407;28;20071;-69
2022/01/15 06:37:05;;;;;;;79.50;7.22;;;;;;;-145.82;100.00;61645.16;4966994;28;20034;-69
2022/01/15 06:39:34;;;;;;;110.55;5.68;;;;;;;-145.82;100.00;61645.16;4966863;28;20066;-69
2022/01/15 06:42:01;;;;;;;141.48;6.53;;;;;;;-145.82;100.00;61645.16;4965261;28;20370;-68
2022/01/15 06:44:26;;;;;;;113.53;8.15;;;;;;;-145.82;100.00;61645.16;4966434;28;20039;-70
2022/01/15 06:46:52;;;;;;;154.68;7.07;;;;;;;-145.82;100.00;61645.16;4981699;28;20425;-70
2022/01/15 06:49:18;;;;;;;106.65;7.15;;;;;;;-145.82;100.00;61645.16;4967981;28;20069;-69
2022/01/15 06:51:43;;;;;;;53.28;2.30;;;;;;;-145.82;100.00;61645.16;4966304;28;20453;-71
2022/01/15 06:54:09;;;;;;;155.18;5.82;;;;;;;-145.82;100.00;61645.16;4964626;28;20572;-69
2022/01/15 06:56:34;;;;;;;102.60;4.75;;;;;;;-145.82;100.00;61645.16;4966127;28;20041;-68
2022/01/15 06:59:00;;;;;;;28.85;3.67;;;;;;;-145.82;100.00;61645.16;4965237;28;20706;-68
2022/01/15 07:01:28;;;;;;;104.45;5.05;;;;;;;-145.82;100.00;61645.16;4965671;28;20031;-68
2022/01/15 07:03:54;;;;;;;124.65;5.72;;;;;;;-145.82;100.00;61645.16;4963931;28;20075;-71
2022/01/15 07:06:19;;;;;;;81.57;2.72;;;;;;;-145.82;100.00;61645.16;4965263;28;20105;-69
2022/01/15 07:08:45;;;;;;;133.07;6.03;;;;;;;-145.82;100.00;61645.16;4964391;28;20046;-69
2022/01/15 07:11:10;;;;;;;109.82;3.80;;;;;;;-145.82;100.00;61645.16;4963459;28;20378;-70
2022/01/15 07:13:35;;;;;;;17.98;1.50;;;;;;;-145.82;100.00;61645.16;4965112;28;20359;-69
2022/01/15 07:16:01;;;;;;;124.97;5.65;;;;;;;-145.82;100.00;61645.16;4962910;28;20090;-71
2022/01/15 07:18:26;;;;;;;88.43;4.53;;;;;;;-145.82;100.00;61645.16;4961912;28;20031;-69
2022/01/15 07:20:53;;;;;;;188.68;6.63;;;;;;;-145.82;100.00;61645.16;4964919;28;20358;-70
2022/01/15 07:23:18;;;;;;;153.10;10.13;;;;;;;-145.82;100.00;61645.16;4962211;28;20141;-71
2022/01/15 07:25:44;;;;;;;109.75;13.82;;;;;;;-145.82;100.00;61645.16;4961162;28;20360;-70
2022/01/15 07:28:10;;;;;;;170.48;7.15;;;;;;;-145.82;100.00;61645.16;4962059;28;20043;-68
2022/01/15 07:30:35;;;;;;;184.00;8.35;;;;;;;-145.82;100.00;61645.16;4964406;28;20042;-68
2022/01/15 07:33:02;;;;;;;114.97;5.85;;;;;;;-145.82;100.00;61645.16;4962898;28;20023;-68
2022/01/15 07:35:28;;;;;;;121.20;7.88;;;;;;;-145.82;100.00;61645.16;4964724;28;20034;-69
2022/01/15 07:37:54;;;;;;;191.63;10.00;;;;;;;-145.82;100.00;61645.16;4961141;28;20035;-68
2022/01/15 07:40:20;;;;;;;310.65;17.73;;;;;;;-145.82;100.00;61645.16;4965911;28;20093;-69
2022/01/15 07:42:45;;;;;;;14.70;1.48;;;;;;;-145.82;100.00;61645.16;4963875;28;20042;-70
2022/01/15 07:45:14;;;;;;;131.18;4.30;;;;;;;-145.82;100.00;61645.16;4962981;28;20062;-71
2022/01/15 07:47:40;;;;;;;167.80;6.60;;;;;;;-145.82;100.00;61645.16;4962236;28;20382;-70
2022/01/15 07:50:10;;;;;;;184.55;5.50;;;;;;;-145.82;100.00;61645.16;4963117;28;20454;-70
2022/01/15 07:52:36;;;;;;;194.27;8.00;;;;;;;-145.82;100.00;61645.16;4962942;28;20045;-69
2022/01/15 07:55:03;;;;;;;228.38;9.45;;;;;;;-145.82;100.00;61645.16;4962123;28;20054;-69
2022/01/15 07:57:28;;;;;;;168.60;10.85;;;;;;;-145.82;100.00;61645.16;4963462;28;20047;-70
2022/01/15 07:59:54;;;;;;;160.27;6.45;;;;;;;-145.82;100.00;61645.16;4977696;28;20046;-70
2022/01/15 08:02:19;;;;;;;167.05;7.20;;;;;;;-145.82;100.00;61645.16;4963294;28;20054;-70
2022/01/15 08:04:45;;;;;;;75.85;4.28;;;;;;;-145.82;100.00;61645.16;4963027;28;20438;-70
2022/01/15 08:07:11;;;;;;;110.10;4.75;;;;;;;-145.82;100.00;61645.16;4961364;28;20592;-71
2022/01/15 08:09:37;;;;;;;95.70;4.25;;;;;;;-145.82;100.00;61645.16;4965099;28;20596;-69
2022/01/15 08:12:03;;;;;;;51.03;2.25;;;;;;;-145.82;100.00;61645.16;4964595;28;20239;-69
2022/01/15 08:14:31;;;;;;;76.07;4.43;;;;;;;-145.82;100.00;61645.16;4963733;28;20658;-69
2022/01/15 08:16:57;;;;;;;48.30;4.28;;;;;;;-145.82;100.00;61645.16;4962761;28;20137;-69
2022/01/15 08:19:23;;;;;;;95.57;3.90;;;;;;;-145.82;100.00;61645.16;4965142;28;20034;-69
2022/01/15 08:21:48;;;;;;;37.75;3.25;;;;;;;-145.82;100.00;61645.16;4964152;28;20422;-71
2022/01/15 08:24:14;;;;;;;46.75;3.88;;;;;;;-145.82;100.00;61645.16;4962536;28;20367;-71
2022/01/15 08:26:39;;;;;;;144.15;5.53;;;;;;;-145.82;100.00;61645.16;4963756;28;20042;-69
2022/01/15 08:29:05;;;;;;;102.25;4.88;;;;;;;-145.82;100.00;61645.16;4961610;28;20031;-68
2022/01/15 08:31:31;;;;;;;77.10;3.50;;;;;;;-145.82;100.00;61645.16;4963433;28;20041;-69
2022/01/15 08:33:56;;;;;;;56.35;2.28;;;;;;;-145.82;100.00;61645.16;4966382;28;20618;-69
2022/01/15 08:36:22;;;;;;;123.00;4.22;;;;;;;-145.82;100.00;61645.16;4977744;28;20034;-71
2022/01/15 08:38:50;;;;;;;71.25;3.42;;;;;;;-145.82;100.00;61645.16;4963087;28;20034;-71
2022/01/15 08:41:16;;;;;;;118.80;4.32;;;;;;;-145.82;100.00;61645.16;4964400;28;20075;-70
2022/01/15 08:43:42;;;;;;;113.13;4.65;;;;;;;-145.82;100.00;61645.16;4963214;28;20050;-71
2022/01/15 08:46:08;;;;;;;162.63;9.38;;;;;;;-145.82;100.00;61645.16;4963611;28;20046;-69
2022/01/15 08:48:34;;;;;;;107.03;3.88;;;;;;;-145.82;100.00;61645.16;4962451;28;20346;-69
2022/01/15 08:50:59;;;;;;;49.95;2.60;;;;;;;-145.82;100.00;61645.16;4962455;28;20039;-70
2022/01/15 08:53:25;;;;;;;26.52;3.25;;;;;;;-145.82;100.00;61645.16;4961615;28;20383;-69
2022/01/15 08:55:51;;;;;;;119.10;4.53;;;;;;;-145.82;100.00;61645.16;4963607;28;20038;-69
2022/01/15 08:58:16;;;;;;;57.15;3.13;;;;;;;-145.82;100.00;61645.16;4962766;28;20088;-70
2022/01/15 09:00:42;;;;;;;37.63;3.53;;;;;;;-145.82;100.00;61645.16;4962075;28;20039;-71
2022/01/15 09:03:07;;;;;;;24.75;3.35;;;;;;;-145.82;100.00;61645.16;4962302;28;20126;-71
2022/01/15 09:05:37;;;;;;;105.07;5.57;;;;;;;-145.82;100.00;61645.16;4962213;28;20098;-70
2022/01/15 09:08:06;;;;;;;80.85;3.92;;;;;;;-145.82;100.00;61645.16;4959361;28;20035;-70
2022/01/15 09:10:32;;;;;;;70.75;5.25;;;;;;;-145.82;100.00;61645.16;4962199;28;20045;-69
2022/01/15 09:12:58;;;;;;;227.27;15.32;;;;;;;-145.82;100.00;61645.16;4959065;28;20053;-69
2022/01/15 09:15:24;;;;;;;86.30;6.90;;;;;;;-145.82;100.00;61645.16;4962681;28;20093;-70
2022/01/15 09:17:49;;;;;;;230.77;9.38;;;;;;;-145.82;100.00;61645.16;4962253;28;20030;-70
2022/01/15 09:20:15;;;;;;;110.80;4.43;;;;;;;-145.82;100.00;61645.16;4960435;28;20077;-69
2022/01/15 09:22:41;;;;;;;75.18;4.32;;;;;;;-145.82;100.00;61645.16;4962311;28;20035;-69
2022/01/15 09:25:07;;;;;;;63.63;3.80;;;;;;;-145.82;100.00;61645.16;4960610;28;20070;-69
2022/01/15 09:30:19;;;;;;;125.57;4.88;;;;;;;-145.82;100.00;61645.16;4963308;28;20113;-70
2022/01/15 09:32:52;;;;;;;49.13;2.10;;;;;;;-145.82;100.00;61645.16;4963293;28;20666;-71
2022/01/15 09:35:22;;;;;;;39.42;1.98;;;;;;;-145.82;100.00;61645.16;4962467;28;20049;-69
2022/01/15 09:37:49;;;;;;;193.37;9.17;;;;;;;-145.82;100.00;61645.16;4962602;28;20039;-71
2022/01/15 09:40:16;;;;;;;81.78;2.80;;;;;;;-145.82;100.00;61645.16;4962997;28;20035;-70
2022/01/15 09:42:44;;;;;;;120.32;7.03;;;;;;;-145.82;100.00;61645.16;4962914;28;20062;-70
2022/01/15 09:45:10;;;;;;;84.32;2.85;;;;;;;-145.82;100.00;61645.16;4960363;28;20386;-71
2022/01/15 09:47:37;;;;;;;74.07;2.97;;;;;;;-145.82;100.00;61645.16;4961177;28;20098;-70
2022/01/15 09:50:08;;;;;;;130.45;4.22;;;;;;;-145.82;100.00;61645.16;4961494;28;20062;-70
2022/01/15 09:52:35;;;;;;;105.25;3.47;;;;;;;-145.82;100.00;61645.16;4961419;28;20085;-69
2022/01/15 09:55:03;;;;;;;150.25;4.63;;;;;;;-145.82;100.00;61645.16;4956324;28;20053;-70
2022/01/15 09:57:28;;;;;;;146.90;4.57;;;;;;;-145.82;100.00;61645.16;4959864;28;20153;-69
2022/01/15 09:59:54;;;;;;;64.25;2.80;;;;;;;-145.82;100.00;61645.16;4960179;28;20382;-71
2022/01/15 10:02:20;;;;;;;147.98;5.13;;;;;;;-145.82;100.00;61645.16;4960319;28;20089;-69
2022/01/15 10:04:45;;;;;;;130.60;5.60;;;;;;;-145.82;100.00;61645.16;4961179;28;20106;-70
2022/01/15 10:07:15;;;;;;;121.53;4.47;;;;;;;-145.82;100.00;61645.16;4962109;28;20139;-70
2022/01/15 10:09:42;;;;;;;81.05;4.18;;;;;;;-145.82;100.00;61645.16;4962643;28;20031;-70
2022/01/15 10:12:08;;;;;;;126.72;4.15;;;;;;;-145.82;100.00;61645.16;4961026;28;20043;-69
2022/01/15 10:14:36;;;;;;;146.13;5.80;;;;;;;-145.82;100.00;61645.16;4961868;28;20038;-71
2022/01/15 10:17:19;;;;;;;112.40;6.00;;;;;;;-145.82;100.00;61645.16;4960821;28;20062;-68
2022/01/15 10:19:46;;;;;;;64.50;4.03;;;;;;;-145.82;100.00;61645.16;4961744;28;20085;-70
2022/01/15 10:22:23;;;;;;;106.00;5.13;;;;;;;-145.82;100.00;61645.16;4962378;28;20133;-70
2022/01/15 10:24:52;;;;;;;76.93;2.50;;;;;;;-145.82;100.00;61645.16;4963030;28;20046;-70
2022/01/15 10:27:20;;;;;;;135.60;4.50;;;;;;;-145.82;100.00;61645.16;4977831;28;20362;-70
2022/01/15 10:29:58;;;;;;;74.88;3.67;;;;;;;-145.82;100.00;61645.16;4958181;28;20493;-70
2022/01/15 10:32:25;;;;;;;122.15;6.60;;;;;;;-145.82;100.00;61645.16;4959989;28;20469;-70
2022/01/15 10:34:51;;;;;;;96.15;3.78;;;;;;;-145.82;100.00;61645.16;4959545;28;20458;-69
2022/01/15 10:37:27;;;;;;;63.17;3.28;;;;;;;-145.82;100.00;61645.16;4959781;28;20051;-69
2022/01/15 10:39:56;;;;;;;86.18;3.80;;;;;;;-145.82;100.00;61645.16;4961683;28;20038;-71
2022/01/15 10:42:23;;;;;;;61.10;2.67;;;;;;;-145.82;100.00;61645.16;4961666;28;20046;-69
2022/01/15 10:44:51;;;;;;;44.42;1.92;;;;;;;-145.82;100.00;61645.16;4961174;28;20038;-69
2022/01/15 10:47:18;;;;;;;60.85;3.25;;;;;;;-145.82;100.00;61645.16;4959914;28;20399;-70
2022/01/15 10:49:44;;;;;;;55.08;2.58;;;;;;;-145.82;100.00;61645.16;4963894;28;20069;-69
2022/01/15 10:52:19;;;;;;;21.20;1.52;;;;;;;-145.82;100.00;61645.16;4978233;28;20482;-71
2022/01/15 10:54:52;;;;;;;17.38;1.50;;;;;;;-145.82;100.00;61645.16;4962889;28;20628;-69
2022/01/15 10:57:23;;;;;;;69.57;4.03;;;;;;;-145.82;100.00;61645.16;4961897;28;20038;-69
2022/01/15 10:59:56;;;;;;;134.23;4.90;;;;;;;-145.82;100.00;61645.16;4963020;28;20046;-70
2022/01/15 11:02:22;;;;;;;19.77;1.38;;;;;;;-145.82;100.00;61645.16;4965423;28;20347;-69
2022/01/15 11:04:47;;;;;;;93.75;4.47;;;;;;;-145.82;100.00;61645.16;4966193;28;20333;-69
2022/01/15 11:07:14;;;;;;;79.20;4.60;;;;;;;-145.82;100.00;61645.16;4963784;28;20631;-70
2022/01/15 11:09:45;;;;;;;90.88;5.97;;;;;;;-145.82;100.00;61645.16;4980415;28;20489;-69
2022/01/15 11:12:12;;;;;;;133.32;7.57;;;;;;;-145.82;100.00;61645.16;4966060;28;20432;-70
2022/01/15 11:14:38;;;;;;;125.85;6.95;;;;;;;-145.82;100.00;61645.16;4966523;28;20430;-68
2022/01/15 11:17:05;;;;;;;101.82;5.80;;;;;;;-145.82;100.00;61645.16;4965260;28;20114;-69